createdAt,value
2019-02-06T00:01:32.951Z,14.93
2019-02-06T00:04:01.646Z,10.70
2019-02-06T00:06:30.344Z,10.70
2019-02-06T00:08:58.966Z,10.40
2019-02-06T00:11:27.561Z,11.17
2019-02-06T00:13:56.205Z,9.30
2019-02-06T00:16:24.814Z,10.47
2019-02-06T00:18:53.332Z,12.70
2019-02-06T00:21:22.208Z,11.70
2019-02-06T00:23:50.719Z,14.70
2019-02-06T00:26:19.231Z,10.00
2019-02-06T00:28:47.728Z,8.43
2019-02-06T00:31:16.325Z,7.43
2019-02-06T00:33:44.786Z,11.27
2019-02-06T00:36:13.395Z,12.33
2019-02-06T00:38:42.004Z,10.73
2019-02-06T00:41:10.844Z,12.60
2019-02-06T00:43:39.453Z,10.57
2019-02-06T00:46:07.908Z,12.90
2019-02-06T00:48:36.435Z,16.83
2019-02-06T00:51:05.051Z,11.93
2019-02-06T00:53:33.756Z,9.03
2019-02-06T00:56:02.699Z,14.60
2019-02-06T00:58:31.294Z,15.97
2019-02-06T01:00:59.816Z,17.13
2019-02-06T01:03:28.359Z,8.90
2019-02-06T01:05:56.887Z,10.47
2019-02-06T01:08:25.354Z,16.27
2019-02-06T01:10:55.026Z,10.30
2019-02-06T01:13:23.902Z,14.70
2019-02-06T01:15:52.504Z,14.20
2019-02-06T01:18:21.226Z,13.17
2019-02-06T01:20:49.760Z,13.60
2019-02-06T01:23:18.220Z,6.50
2019-02-06T01:25:46.808Z,16.90
2019-02-06T01:28:15.510Z,12.30
2019-02-06T01:30:45.739Z,14.80
2019-02-06T01:33:14.191Z,13.87
2019-02-06T01:35:49.937Z,14.57
2019-02-06T01:38:13.024Z,7.53
2019-02-06T01:40:41.476Z,13.50
2019-02-06T01:43:10.078Z,15.00
2019-02-06T01:45:38.975Z,6.27
2019-02-06T01:48:07.488Z,11.77
2019-02-06T01:50:36.021Z,12.93
2019-02-06T01:53:04.800Z,12.10
2019-02-06T01:55:36.179Z,10.67
2019-02-06T01:58:04.899Z,14.33
2019-02-06T02:00:33.767Z,11.73
2019-02-06T02:03:02.231Z,10.00
2019-02-06T02:05:31.010Z,10.33
2019-02-06T02:07:59.604Z,10.17
2019-02-06T02:10:28.134Z,10.53
2019-02-06T02:12:56.755Z,8.73
2019-02-06T02:15:25.318Z,7.10
2019-02-06T02:17:54.240Z,12.93
2019-02-06T02:20:24.040Z,9.63
2019-02-06T02:22:53.176Z,8.70
2019-02-06T02:25:21.906Z,11.57
2019-02-06T02:27:50.353Z,10.53
2019-02-06T02:30:26.426Z,7.93
2019-02-06T02:32:54.944Z,12.50
2019-02-06T02:35:23.475Z,10.13
2019-02-06T02:37:52.076Z,14.43
2019-02-06T02:40:20.546Z,12.53
2019-02-06T02:42:49.075Z,12.03
2019-02-06T02:45:19.009Z,16.67
2019-02-06T02:47:47.996Z,12.13
2019-02-06T02:50:16.455Z,10.43
2019-02-06T02:52:45.130Z,13.10
2019-02-06T02:55:14.383Z,11.87
2019-02-06T02:57:43.010Z,10.97
2019-02-06T03:00:18.424Z,9.80
2019-02-06T03:03:01.315Z,12.87
2019-02-06T03:05:31.476Z,12.63
2019-02-06T03:08:00.072Z,13.80
2019-02-06T03:10:29.192Z,16.07
2019-02-06T03:12:57.869Z,10.70
2019-02-06T03:15:26.520Z,7.80
2019-02-06T03:17:55.020Z,11.77
2019-02-06T03:20:23.625Z,12.10
2019-02-06T03:22:52.080Z,17.33
2019-02-06T03:25:20.606Z,10.77
2019-02-06T03:27:49.206Z,13.70
2019-02-06T03:30:20.964Z,12.97
2019-02-06T03:32:49.546Z,14.97
2019-02-06T03:35:18.310Z,15.70
2019-02-06T03:37:46.860Z,13.10
2019-02-06T03:40:17.956Z,10.97
2019-02-06T03:42:46.562Z,13.50
2019-02-06T03:45:15.821Z,17.33
2019-02-06T03:47:44.352Z,16.67
2019-02-06T03:50:15.871Z,12.73
2019-02-06T03:52:44.471Z,14.43
2019-02-06T03:55:13.662Z,18.50
2019-02-06T03:57:42.258Z,18.03
2019-02-06T04:00:16.514Z,22.90
2019-02-06T04:02:45.921Z,19.70
2019-02-06T04:05:14.711Z,15.70
2019-02-06T04:07:43.466Z,19.63
2019-02-06T04:10:20.003Z,23.90
2019-02-06T04:12:48.536Z,18.97
2019-02-06T04:15:17.688Z,21.87
2019-02-06T04:17:46.201Z,17.53
2019-02-06T04:20:16.247Z,13.07
2019-02-06T04:22:44.772Z,24.87
2019-02-06T04:25:14.849Z,14.13
2019-02-06T04:27:43.487Z,14.83
2019-02-06T04:30:17.049Z,16.57
2019-02-06T04:32:45.724Z,20.97
2019-02-06T04:35:15.407Z,18.73
2019-02-06T04:37:44.331Z,16.20
2019-02-06T04:40:18.558Z,17.37
2019-02-06T04:42:47.888Z,17.67
2019-02-06T04:45:18.388Z,13.43
2019-02-06T04:47:47.141Z,14.40
2019-02-06T04:50:17.459Z,18.73
2019-02-06T04:52:46.264Z,15.40
2019-02-06T04:55:20.415Z,15.87
2019-02-06T04:58:08.655Z,15.73
2019-02-06T05:00:37.101Z,14.63
2019-02-06T05:03:05.701Z,12.87
2019-02-06T05:05:37.199Z,13.27
2019-02-06T05:08:07.436Z,9.83
2019-02-06T05:10:35.959Z,11.77
2019-02-06T05:13:04.583Z,10.87
2019-02-06T05:15:33.119Z,11.20
2019-02-06T05:18:01.823Z,13.73
2019-02-06T05:20:38.267Z,10.83
2019-02-06T05:23:07.779Z,12.43
2019-02-06T05:25:36.420Z,13.27
2019-02-06T05:28:05.557Z,12.07
2019-02-06T05:30:34.245Z,10.60
2019-02-06T05:33:02.942Z,13.17
2019-02-06T05:35:31.528Z,13.00
2019-02-06T05:38:00.594Z,14.90
2019-02-06T05:40:29.723Z,15.17
2019-02-06T05:42:58.255Z,10.10
2019-02-06T05:45:26.871Z,17.60
2019-02-06T05:47:55.489Z,14.00
2019-02-06T05:50:23.960Z,15.43
2019-02-06T05:52:52.579Z,15.50
2019-02-06T05:55:21.031Z,13.77
2019-02-06T05:57:49.754Z,16.93
2019-02-06T06:00:27.890Z,15.50
2019-02-06T06:02:56.694Z,12.80
2019-02-06T06:05:25.363Z,15.60
2019-02-06T06:07:53.954Z,12.97
2019-02-06T06:10:23.006Z,15.80
2019-02-06T06:12:51.464Z,10.90
2019-02-06T06:15:21.230Z,12.83
2019-02-06T06:17:49.907Z,15.20
2019-02-06T06:20:19.913Z,11.57
2019-02-06T06:22:48.825Z,13.67
2019-02-06T06:25:19.792Z,14.43
2019-02-06T06:27:48.715Z,16.40
2019-02-06T06:30:19.454Z,13.53
2019-02-06T06:32:47.980Z,15.50
2019-02-06T06:35:16.425Z,20.27
2019-02-06T06:37:57.163Z,23.53
2019-02-06T06:40:23.213Z,21.93
2019-02-06T06:42:51.971Z,18.83
2019-02-06T06:45:26.731Z,17.60
2019-02-06T06:48:14.643Z,21.30
2019-02-06T06:50:43.265Z,24.37
2019-02-06T06:53:11.775Z,18.03
2019-02-06T06:55:40.303Z,26.90
2019-02-06T06:58:08.761Z,12.47
2019-02-06T07:00:37.360Z,19.37
2019-02-06T07:03:05.883Z,15.10
2019-02-06T07:05:34.412Z,18.13
2019-02-06T07:08:09.549Z,20.57
2019-02-06T07:10:33.657Z,17.10
2019-02-06T07:13:02.103Z,20.43
2019-02-06T07:15:32.835Z,23.90
2019-02-06T07:18:01.603Z,17.60
2019-02-06T07:20:30.313Z,16.60
2019-02-06T07:22:59.371Z,15.23
2019-02-06T07:25:27.899Z,18.07
2019-02-06T07:27:56.481Z,16.00
2019-02-06T07:30:27.713Z,14.30
2019-02-06T07:32:56.598Z,17.63
2019-02-06T07:35:44.464Z,19.03
2019-02-06T07:38:23.661Z,15.73
2019-02-06T07:40:43.283Z,10.50
2019-02-06T07:43:11.891Z,8.40
2019-02-06T07:45:40.358Z,10.00
2019-02-06T07:48:08.943Z,14.37
2019-02-06T07:50:37.824Z,14.43
2019-02-06T07:53:06.276Z,13.97
2019-02-06T07:55:34.723Z,13.73
2019-02-06T07:58:03.391Z,12.93
2019-02-06T08:00:33.319Z,15.73
2019-02-06T08:03:01.799Z,15.53
2019-02-06T08:05:51.239Z,14.70
2019-02-06T08:08:19.767Z,15.53
2019-02-06T08:10:48.220Z,15.60
2019-02-06T08:13:16.867Z,18.17
2019-02-06T08:15:45.319Z,19.80
2019-02-06T08:18:13.771Z,18.27
2019-02-06T08:20:42.301Z,16.77
2019-02-06T08:23:10.750Z,17.30
2019-02-06T08:25:39.482Z,18.53
2019-02-06T08:28:08.087Z,17.90
2019-02-06T08:30:38.788Z,18.77
2019-02-06T08:33:07.656Z,21.07
2019-02-06T08:35:36.439Z,21.00
2019-02-06T08:38:05.429Z,22.17
2019-02-06T08:40:34.503Z,22.53
2019-02-06T08:43:03.041Z,24.03
2019-02-06T08:45:31.822Z,23.37
2019-02-06T08:48:00.275Z,27.37
2019-02-06T08:50:29.191Z,27.23
2019-02-06T08:52:57.961Z,28.70
2019-02-06T08:55:31.619Z,25.37
2019-02-06T08:58:00.831Z,30.60
2019-02-06T09:00:34.774Z,32.50
2019-02-06T09:03:03.948Z,37.70
2019-02-06T09:05:32.819Z,33.00
2019-02-06T09:08:01.705Z,40.07
2019-02-06T09:10:32.951Z,36.97
2019-02-06T09:13:02.371Z,40.43
2019-02-06T09:15:31.447Z,37.83
2019-02-06T09:18:00.226Z,42.90
2019-02-06T09:20:30.134Z,56.30
2019-02-06T09:22:59.295Z,43.23
2019-02-06T09:25:29.384Z,50.17
2019-02-06T09:27:58.342Z,49.03
2019-02-06T09:30:32.121Z,55.73
2019-02-06T09:33:01.058Z,71.20
2019-02-06T09:35:29.732Z,62.37
2019-02-06T09:37:58.585Z,62.53
2019-02-06T09:40:28.892Z,63.23
2019-02-06T09:42:57.566Z,71.87
2019-02-06T09:45:26.598Z,67.77
2019-02-06T09:47:55.304Z,61.87
2019-02-06T09:50:29.472Z,56.73
2019-02-06T09:52:58.060Z,60.37
2019-02-06T09:55:26.764Z,59.30
2019-02-06T09:57:55.441Z,59.70
2019-02-06T10:00:29.290Z,60.17
2019-02-06T10:02:57.944Z,56.10
2019-02-06T10:05:26.820Z,59.23
2019-02-06T10:07:55.454Z,58.80
2019-02-06T10:10:27.948Z,58.93
2019-02-06T10:12:56.809Z,53.97
2019-02-06T10:15:36.875Z,52.10
2019-02-06T10:18:06.204Z,49.20
2019-02-06T10:20:40.087Z,48.97
2019-02-06T10:23:09.701Z,49.83
2019-02-06T10:25:38.944Z,47.40
2019-02-06T10:28:07.642Z,51.77
2019-02-06T10:30:39.086Z,42.30
2019-02-06T10:33:07.768Z,45.77
2019-02-06T10:35:36.296Z,43.10
2019-02-06T10:38:05.466Z,43.93
2019-02-06T10:40:34.455Z,41.50
2019-02-06T10:43:02.998Z,38.80
2019-02-06T10:45:31.541Z,39.27
2019-02-06T10:48:00.191Z,40.83
2019-02-06T10:50:43.696Z,41.13
2019-02-06T10:53:12.444Z,44.73
2019-02-06T10:55:41.052Z,50.00
2019-02-06T10:58:09.587Z,46.23
2019-02-06T11:00:46.158Z,47.27
2019-02-06T11:03:14.695Z,46.90
2019-02-06T11:05:43.299Z,49.43
2019-02-06T11:08:12.155Z,46.03
2019-02-06T11:10:40.917Z,44.47
2019-02-06T11:13:09.534Z,44.57
2019-02-06T11:15:38.786Z,46.60
2019-02-06T11:18:07.664Z,50.43
2019-02-06T11:20:38.427Z,52.63
2019-02-06T11:23:08.053Z,51.63
2019-02-06T11:25:36.952Z,47.37
2019-02-06T11:28:06.764Z,50.73
2019-02-06T11:30:37.732Z,46.50
2019-02-06T11:33:07.834Z,50.27
2019-02-06T11:35:36.858Z,47.83
2019-02-06T11:38:06.928Z,42.97
2019-02-06T11:40:37.077Z,44.57
2019-02-06T11:43:06.470Z,46.63
2019-02-06T11:45:36.139Z,48.77
2019-02-06T11:48:05.536Z,47.20
2019-02-06T11:50:39.142Z,44.87
2019-02-06T11:53:09.957Z,53.47
2019-02-06T11:55:38.623Z,56.37
2019-02-06T11:58:07.719Z,53.07
2019-02-06T12:00:54.552Z,49.97
2019-02-06T12:03:23.203Z,52.40
2019-02-06T12:05:51.729Z,49.23
2019-02-06T12:08:20.202Z,60.43
2019-02-06T12:10:49.276Z,57.00
2019-02-06T12:13:17.945Z,60.60
2019-02-06T12:15:59.660Z,61.37
2019-02-06T12:18:28.344Z,56.63
2019-02-06T12:20:56.888Z,56.07
2019-02-06T12:23:32.427Z,54.80
2019-02-06T12:25:56.088Z,55.13
2019-02-06T12:28:24.621Z,59.57
2019-02-06T12:30:56.045Z,59.63
2019-02-06T12:33:23.600Z,59.57
2019-02-06T12:35:52.138Z,61.17
2019-02-06T12:38:20.589Z,69.53
2019-02-06T12:40:49.721Z,69.47
2019-02-06T12:43:18.271Z,74.50
2019-02-06T12:45:46.856Z,69.90
2019-02-06T12:48:15.451Z,63.50
2019-02-06T12:50:44.059Z,70.03
2019-02-06T12:53:12.687Z,79.87
2019-02-06T12:55:41.807Z,77.00
2019-02-06T12:58:10.787Z,73.90
2019-02-06T13:00:44.063Z,75.03
2019-02-06T13:03:12.731Z,68.90
2019-02-06T13:05:41.355Z,75.03
2019-02-06T13:08:10.106Z,74.57
2019-02-06T13:10:38.700Z,68.77
2019-02-06T13:13:07.325Z,73.17
2019-02-06T13:15:36.384Z,72.27
2019-02-06T13:18:05.339Z,67.23
2019-02-06T13:20:35.810Z,70.50
2019-02-06T13:23:05.750Z,69.63
2019-02-06T13:25:34.616Z,83.17
2019-02-06T13:28:03.211Z,84.93
2019-02-06T13:30:35.676Z,73.67
2019-02-06T13:33:05.881Z,73.20
2019-02-06T13:35:34.408Z,84.57
2019-02-06T13:38:03.070Z,69.90
2019-02-06T13:40:31.520Z,78.87
2019-02-06T13:43:00.296Z,73.93
2019-02-06T13:45:32.220Z,68.50
2019-02-06T13:48:00.938Z,60.87
2019-02-06T13:50:50.200Z,63.87
2019-02-06T13:53:18.692Z,62.63
2019-02-06T13:55:47.628Z,65.00
2019-02-06T13:58:20.423Z,62.83
2019-02-06T14:00:46.493Z,66.33
2019-02-06T14:03:15.024Z,62.03
2019-02-06T14:05:46.647Z,62.87
2019-02-06T14:08:15.830Z,59.33
2019-02-06T14:10:57.102Z,55.07
2019-02-06T14:13:15.171Z,56.97
2019-02-06T14:15:46.533Z,59.57
2019-02-06T14:18:15.832Z,59.97
2019-02-06T14:20:45.869Z,56.57
2019-02-06T14:23:17.396Z,53.53
2019-02-06T14:26:10.086Z,55.63
2019-02-06T14:28:44.791Z,61.10
2019-02-06T14:31:33.070Z,56.13
2019-02-06T14:34:25.300Z,54.77
2019-02-06T14:37:13.679Z,51.93
2019-02-06T14:40:00.255Z,46.67
2019-02-06T14:42:35.068Z,47.77
2019-02-06T14:45:34.351Z,51.67
2019-02-06T14:48:11.557Z,59.50
2019-02-06T14:50:43.180Z,57.40
2019-02-06T14:53:15.092Z,48.50
2019-02-06T14:56:04.843Z,52.20
2019-02-06T14:58:42.178Z,53.57
2019-02-06T15:01:22.831Z,60.57
2019-02-06T15:03:54.464Z,55.03
2019-02-06T15:06:42.593Z,59.10
2019-02-06T15:09:22.330Z,63.97
2019-02-06T15:11:56.188Z,61.97
2019-02-06T15:14:39.940Z,59.00
2019-02-06T15:17:26.480Z,59.17
2019-02-06T15:20:14.579Z,54.03
2019-02-06T15:22:54.713Z,54.53
2019-02-06T15:25:41.320Z,60.50
2019-02-06T15:28:18.652Z,70.13
2019-02-06T15:30:50.247Z,64.67
2019-02-06T15:33:40.212Z,67.27
2019-02-06T15:36:20.579Z,65.17
2019-02-06T15:38:52.308Z,67.27
2019-02-06T15:41:30.978Z,66.13
2019-02-06T15:44:02.828Z,66.57
2019-02-06T15:46:54.830Z,67.00
2019-02-06T15:49:32.147Z,60.20
2019-02-06T15:52:21.445Z,71.03
2019-02-06T15:55:11.269Z,63.13
2019-02-06T15:58:14.538Z,68.90
2019-02-06T16:00:57.659Z,64.50
2019-02-06T16:04:02.455Z,63.03
2019-02-06T16:07:04.703Z,55.50
2019-02-06T16:09:54.289Z,60.23
2019-02-06T16:12:37.694Z,65.50
2019-02-06T16:15:18.414Z,64.60
2019-02-06T16:17:50.138Z,64.27
2019-02-06T16:20:30.867Z,63.27
2019-02-06T16:23:05.216Z,50.00
2019-02-06T16:26:01.086Z,52.50
2019-02-06T16:28:41.560Z,52.00
2019-02-06T16:31:18.965Z,53.40
2019-02-06T16:33:53.434Z,46.30
2019-02-06T16:36:37.006Z,50.33
2019-02-06T16:39:20.195Z,53.23
2019-02-06T16:42:23.163Z,47.37
2019-02-06T16:45:16.554Z,56.80
2019-02-06T16:47:56.643Z,51.53
2019-02-06T16:50:40.263Z,58.60
2019-02-06T16:53:37.628Z,55.30
2019-02-06T16:56:42.915Z,51.27
2019-02-06T16:59:26.412Z,51.87
2019-02-06T17:02:23.776Z,58.00
2019-02-06T17:05:07.167Z,75.00
2019-02-06T17:07:50.276Z,67.33
2019-02-06T17:10:42.726Z,79.57
2019-02-06T17:13:23.484Z,81.30
2019-02-06T17:16:06.881Z,82.37
2019-02-06T17:18:44.525Z,78.03
2019-02-06T17:21:28.208Z,80.13
2019-02-06T17:24:11.716Z,78.40
2019-02-06T17:26:52.882Z,87.30
2019-02-06T17:29:33.135Z,76.80
2019-02-06T17:32:07.887Z,68.87
2019-02-06T17:34:51.124Z,78.57
2019-02-06T17:37:28.291Z,76.83
2019-02-06T17:40:11.955Z,74.20
2019-02-06T17:42:46.029Z,68.90
2019-02-06T17:45:35.740Z,66.40
2019-02-06T17:48:13.129Z,65.57
2019-02-06T17:51:11.956Z,68.90
2019-02-06T17:53:43.543Z,78.80
2019-02-06T17:56:12.165Z,72.90
2019-02-06T17:58:40.760Z,75.80
2019-02-06T18:01:12.918Z,81.80
2019-02-06T18:03:43.806Z,98.63
2019-02-06T18:06:13.475Z,90.60
2019-02-06T18:08:44.193Z,90.10
2019-02-06T18:11:12.785Z,88.70
2019-02-06T18:13:41.388Z,85.53
2019-02-06T18:16:20.828Z,81.27
2019-02-06T18:18:40.730Z,87.57
2019-02-06T18:21:09.364Z,94.27
2019-02-06T18:23:37.977Z,100.93
2019-02-06T18:26:07.506Z,85.43
2019-02-06T18:28:38.306Z,102.93
2019-02-06T18:31:07.390Z,96.57
2019-02-06T18:33:36.072Z,98.20
2019-02-06T18:36:05.853Z,97.40
2019-02-06T18:38:34.502Z,116.47
2019-02-06T18:41:03.298Z,118.57
2019-02-06T18:43:31.993Z,95.20
2019-02-06T18:46:00.583Z,95.67
2019-02-06T18:48:29.747Z,107.33
2019-02-06T18:50:58.652Z,102.37
2019-02-06T18:53:27.329Z,83.83
2019-02-06T18:55:55.923Z,100.30
2019-02-06T18:58:27.391Z,94.63
2019-02-06T19:00:54.720Z,88.93
2019-02-06T19:03:26.871Z,102.67
2019-02-06T19:05:55.552Z,95.30
2019-02-06T19:08:24.219Z,95.03
2019-02-06T19:10:53.120Z,89.03
2019-02-06T19:13:21.813Z,93.97
2019-02-06T19:15:56.577Z,100.93
2019-02-06T19:18:22.125Z,105.80
2019-02-06T19:20:50.655Z,101.17
2019-02-06T19:23:19.241Z,122.80
2019-02-06T19:25:47.787Z,110.87
2019-02-06T19:28:16.529Z,107.13
2019-02-06T19:30:46.189Z,106.37
2019-02-06T19:33:17.138Z,108.03
2019-02-06T19:35:45.388Z,116.00
2019-02-06T19:38:13.964Z,112.87
2019-02-06T19:40:42.589Z,104.67
2019-02-06T19:43:11.221Z,115.97
2019-02-06T19:45:41.875Z,95.13
2019-02-06T19:48:16.090Z,98.33
2019-02-06T19:50:42.742Z,96.63
2019-02-06T19:53:11.542Z,92.63
2019-02-06T19:55:40.157Z,78.90
2019-02-06T19:58:10.112Z,82.17
2019-02-06T20:00:39.183Z,85.77
2019-02-06T20:03:08.446Z,80.17
2019-02-06T20:05:37.394Z,85.30
2019-02-06T20:08:07.391Z,93.60
2019-02-06T20:10:39.403Z,85.73
2019-02-06T20:13:11.370Z,68.60
2019-02-06T20:15:38.588Z,73.33
2019-02-06T20:18:07.471Z,70.73
2019-02-06T20:20:36.176Z,67.90
2019-02-06T20:23:04.927Z,67.10
2019-02-06T20:25:34.449Z,80.80
2019-02-06T20:28:02.976Z,66.00
2019-02-06T20:30:32.952Z,70.20
2019-02-06T20:33:01.816Z,68.47
2019-02-06T20:35:30.459Z,79.33
2019-02-06T20:37:59.518Z,84.07
2019-02-06T20:40:30.321Z,82.50
2019-02-06T20:42:58.986Z,82.83
2019-02-06T20:45:27.932Z,109.53
2019-02-06T20:47:56.530Z,97.27
2019-02-06T20:50:30.614Z,99.10
2019-02-06T20:52:59.628Z,101.33
2019-02-06T20:55:28.513Z,107.23
2019-02-06T20:57:57.132Z,113.33
2019-02-06T21:00:34.865Z,121.80
2019-02-06T21:03:03.399Z,129.03
2019-02-06T21:05:32.072Z,144.13
2019-02-06T21:08:01.097Z,118.70
2019-02-06T21:10:31.676Z,139.37
2019-02-06T21:13:00.367Z,142.87
2019-02-06T21:15:29.339Z,168.97
2019-02-06T21:17:57.948Z,201.97
2019-02-06T21:20:26.789Z,222.70
2019-02-06T21:22:55.395Z,232.83
2019-02-06T21:25:26.156Z,276.70
2019-02-06T21:27:54.848Z,280.40
2019-02-06T21:30:31.824Z,309.70
2019-02-06T21:33:00.416Z,384.03
2019-02-06T21:35:48.285Z,381.70
2019-02-06T21:38:17.169Z,466.53
2019-02-06T21:40:45.948Z,349.80
2019-02-06T21:43:14.546Z,447.27
2019-02-06T21:45:43.255Z,475.10
2019-02-06T21:48:11.812Z,388.43
2019-02-06T21:50:40.765Z,481.17
2019-02-06T21:53:09.521Z,492.57
2019-02-06T21:55:38.080Z,432.07
2019-02-06T21:58:06.628Z,373.73
2019-02-06T22:00:42.934Z,414.57
2019-02-06T22:03:11.542Z,382.53
2019-02-06T22:05:40.238Z,410.43
2019-02-06T22:08:09.016Z,389.47
2019-02-06T22:10:37.683Z,521.87
2019-02-06T22:13:06.471Z,464.20
2019-02-06T22:15:35.403Z,374.80
2019-02-06T22:18:04.366Z,342.57
2019-02-06T22:20:32.906Z,328.77
2019-02-06T22:23:01.625Z,361.17
2019-02-06T22:25:30.170Z,369.87
2019-02-06T22:27:59.550Z,280.60
2019-02-06T22:30:30.020Z,392.80
2019-02-06T22:32:58.808Z,372.83
2019-02-06T22:35:27.675Z,318.60
2019-02-06T22:37:56.411Z,394.27
2019-02-06T22:40:27.923Z,317.33
2019-02-06T22:42:56.541Z,385.87
2019-02-06T22:45:26.908Z,281.73
2019-02-06T22:47:55.693Z,336.97
2019-02-06T22:50:26.868Z,321.73
2019-02-06T22:52:55.564Z,362.20
2019-02-06T22:55:24.469Z,316.13
2019-02-06T22:57:53.142Z,308.80
2019-02-06T23:00:44.584Z,264.00
2019-02-06T23:03:13.278Z,310.20
2019-02-06T23:06:01.260Z,334.93
2019-02-06T23:08:42.933Z,355.07
2019-02-06T23:11:11.656Z,348.10
2019-02-06T23:13:40.654Z,302.07
2019-02-06T23:16:09.374Z,354.60
2019-02-06T23:18:37.998Z,284.73
2019-02-06T23:21:06.704Z,302.13
2019-02-06T23:23:35.636Z,311.73
2019-02-06T23:26:04.735Z,352.20
2019-02-06T23:28:33.405Z,388.33
2019-02-06T23:31:01.863Z,474.00
2019-02-06T23:33:30.497Z,332.07
2019-02-06T23:35:58.951Z,432.27
2019-02-06T23:38:27.785Z,478.20
2019-02-06T23:40:56.575Z,554.10
2019-02-06T23:43:25.179Z,437.20
2019-02-06T23:45:53.702Z,481.20
2019-02-06T23:48:23.008Z,490.73
2019-02-06T23:50:51.645Z,588.77
2019-02-06T23:53:20.121Z,502.53
2019-02-06T23:55:48.722Z,500.60
2019-02-06T23:58:17.263Z,479.30
